OPKC/KHI METAR and TAF weather

Enter ICAO airport designator
Station Type Date Time Source
OPKC METAR 2022/06/26 07:30 UTC NOAA

OPKC 260730Z 27010KT 6000 NSC 36/23 Q0999 NOSIG


Station Type Date Time Source
OPKC Decoded METAR 2022/06/26 07:30 UTC NOAA

Karachi Airport, Pakistan (OPKC) 24-54N 067-08E 22M
Jun 26, 2022 - 03:30 AM EDT / 2022.06.26 0730 UTC
Wind: from the W (270 degrees) at 12 MPH (10 KT):0
Visibility: 3 mile(s):0
Temperature: 96 F (36 C)
Heat index: 105.4 F (40.8 C):1
Dew Point: 73 F (23 C)
Relative Humidity: 47%
Pressure (altimeter): 29.50 in. Hg (0999 hPa)
ob: OPKC 260730Z 27010KT 6000 NSC 36/23 Q0999 NOSIG
cycle: 7

Station Type Date Time Source
OPKC TAF 2022/06/26 06:42 UTC NOAA

TAF OPKC 260330Z 2606/2712 24015G25KT 5000 HZ FEW030
FM261800 26010G20KT 4000 FU SCT020
FM270400 24015G25KT 5000 HZ SCT030

Example: see airport list